Time;durP1;ratioP1;P1;durP2;ratioP2;P2;SDS_P1;SDS_P2;PMS_P1;PMS_P2;Temp;Humidity;BMP_temperature;BMP_pressure;BME280_temperature;BME280_humidity;BME280_pressure;Samples;Min_cycle;Max_cycle;Signal;HPM_P1;HPM_P2
2022/03/05 00:00:32;;;;;;;21.90;9.45;;;;;;;1.53;79.87;102062.97;5031775;28;20074;-75
2022/03/05 00:02:59;;;;;;;20.15;9.77;;;;;;;1.50;80.51;102068.19;5031617;28;20030;-74
2022/03/05 00:05:24;;;;;;;20.92;9.38;;;;;;;1.52;80.88;102061.22;5031741;28;20032;-75
2022/03/05 00:07:50;;;;;;;22.05;10.25;;;;;;;1.49;81.20;102063.81;5038410;27;20033;-74
2022/03/05 00:10:15;;;;;;;22.20;9.75;;;;;;;1.50;81.66;102065.56;5031379;27;20040;-75
2022/03/05 00:12:41;;;;;;;22.38;10.20;;;;;;;1.48;81.94;102067.25;5031381;28;20109;-74
2022/03/05 00:15:07;;;;;;;23.33;9.32;;;;;;;1.46;81.87;102066.38;5031522;28;20025;-75
2022/03/05 00:17:32;;;;;;;21.33;10.30;;;;;;;1.57;81.57;102072.63;5024485;27;20167;-74
2022/03/05 00:19:58;;;;;;;24.25;10.52;;;;;;;1.58;81.76;102069.13;5074888;27;20040;-75
2022/03/05 00:22:23;;;;;;;25.05;11.20;;;;;;;1.56;81.75;102063.03;5031327;28;20047;-74
2022/03/05 00:24:49;;;;;;;21.90;10.00;;;;;;;1.54;81.72;102069.97;5030988;28;20082;-73
2022/03/05 00:27:16;;;;;;;23.42;9.68;;;;;;;1.53;82.12;102068.19;5031463;28;20028;-75
2022/03/05 00:29:41;;;;;;;24.48;10.27;;;;;;;1.44;82.43;102066.34;5091024;27;20032;-75
2022/03/05 00:32:07;;;;;;;22.75;10.57;;;;;;;1.41;82.42;102070.69;5031245;28;20060;-75
2022/03/05 00:34:32;;;;;;;23.98;11.02;;;;;;;1.31;83.03;102067.91;5031218;28;20022;-74
2022/03/05 00:36:57;;;;;;;26.58;12.02;;;;;;;1.24;83.43;102080.88;5031161;28;20489;-74
2022/03/05 00:39:23;;;;;;;23.25;11.02;;;;;;;1.27;84.23;102083.53;5083090;27;20054;-75
2022/03/05 00:41:48;;;;;;;25.33;11.82;;;;;;;1.18;84.39;102086.88;5051290;27;20046;-74
2022/03/05 00:44:14;;;;;;;24.15;10.68;;;;;;;1.18;84.64;102080.78;5031308;28;20484;-75
2022/03/05 00:46:40;;;;;;;26.02;10.70;;;;;;;1.13;85.34;102085.94;5052170;27;20491;-75
2022/03/05 00:49:06;;;;;;;23.35;10.68;;;;;;;1.03;85.47;102084.94;5031193;28;20025;-74
2022/03/05 00:51:31;;;;;;;24.85;12.32;;;;;;;1.00;85.91;102090.13;5030360;28;20504;-74
2022/03/05 00:53:57;;;;;;;25.88;11.48;;;;;;;0.98;85.82;102084.88;5030622;28;20112;-74
2022/03/05 00:56:22;;;;;;;24.00;10.98;;;;;;;1.07;86.04;102084.09;5037881;27;20029;-74
2022/03/05 00:58:47;;;;;;;27.17;11.60;;;;;;;1.05;85.97;102088.44;5030914;28;20041;-74
2022/03/05 01:01:13;;;;;;;23.98;10.60;;;;;;;1.03;85.83;102084.06;5029675;28;20045;-75
2022/03/05 01:03:38;;;;;;;26.35;11.32;;;;;;;1.01;86.49;102086.66;5030579;28;20419;-74
2022/03/05 01:06:04;;;;;;;25.55;11.25;;;;;;;0.87;86.41;102093.38;5035719;27;20038;-75
2022/03/05 01:08:30;;;;;;;29.02;12.30;;;;;;;0.74;87.22;102100.13;5030591;28;20430;-74
2022/03/05 01:10:55;;;;;;;23.58;11.00;;;;;;;0.59;87.58;102101.63;5133158;27;20116;-75
2022/03/05 01:13:20;;;;;;;26.75;11.15;;;;;;;0.53;87.74;102096.31;5030292;28;20074;-75
2022/03/05 01:15:46;;;;;;;26.83;11.20;;;;;;;0.47;88.16;102097.09;5030638;28;20026;-74
2022/03/05 01:18:11;;;;;;;24.85;11.63;;;;;;;0.41;88.48;102097.00;5037396;27;20026;-74
2022/03/05 01:20:37;;;;;;;27.23;11.52;;;;;;;0.38;88.95;102099.53;5030398;28;20093;-74
2022/03/05 01:23:02;;;;;;;25.00;11.20;;;;;;;0.32;89.57;102100.31;5030096;28;20096;-74
2022/03/05 01:25:28;;;;;;;28.67;11.60;;;;;;;0.27;89.65;102103.66;5030245;28;20110;-74
2022/03/05 01:27:53;;;;;;;25.88;11.15;;;;;;;0.17;90.20;102105.22;5037275;27;20030;-74
2022/03/05 01:30:18;;;;;;;27.20;12.00;;;;;;;0.14;90.67;102106.06;5030603;28;20029;-75
2022/03/05 01:32:44;;;;;;;25.77;11.43;;;;;;;0.09;91.08;102096.38;5030309;28;20032;-74
2022/03/05 01:35:09;;;;;;;24.33;11.32;;;;;;;0.04;91.26;102096.31;5029996;28;20033;-75
2022/03/05 01:37:35;;;;;;;26.23;11.48;;;;;;;0.03;91.16;102101.50;5033124;28;20036;-75
2022/03/05 01:40:00;;;;;;;24.08;10.73;;;;;;;-0.01;91.35;102097.97;5099416;27;20019;-74
2022/03/05 01:42:26;;;;;;;24.83;11.35;;;;;;;-0.06;91.60;102092.66;5133775;27;20423;-74
2022/03/05 01:44:51;;;;;;;25.00;11.07;;;;;;;-0.12;91.88;102087.31;5033006;27;20021;-74
2022/03/05 01:47:17;;;;;;;28.63;12.52;;;;;;;-0.18;92.05;102085.47;5030167;28;20025;-75
2022/03/05 01:49:43;;;;;;;28.08;11.60;;;;;;;-0.14;92.92;102090.75;5030085;28;20080;-74
2022/03/05 01:52:09;;;;;;;31.00;12.25;;;;;;;-0.16;92.89;102090.72;5029990;28;20030;-74
2022/03/05 01:54:34;;;;;;;28.13;11.40;;;;;;;-0.22;93.12;102085.38;5036626;28;20026;-75
2022/03/05 01:57:00;;;;;;;31.48;12.20;;;;;;;-0.22;92.87;102095.78;5029840;28;20112;-74
2022/03/05 01:59:26;;;;;;;26.10;11.13;;;;;;;-0.22;93.34;102099.28;5029945;28;20033;-74
2022/03/05 02:01:51;;;;;;;28.17;11.63;;;;;;;-0.22;92.63;102083.69;5029945;28;20026;-74
2022/03/05 02:04:17;;;;;;;25.88;11.52;;;;;;;-0.20;93.27;102092.38;5036686;28;20030;-75
2022/03/05 02:06:42;;;;;;;24.02;10.90;;;;;;;-0.23;92.61;102092.31;5029511;28;20037;-75
2022/03/05 02:09:08;;;;;;;26.63;11.95;;;;;;;-0.30;92.82;102093.03;5028335;28;20045;-74
2022/03/05 02:11:33;;;;;;;29.33;11.70;;;;;;;-0.35;93.04;102092.94;5030559;28;20428;-74
2022/03/05 02:13:59;;;;;;;32.22;12.07;;;;;;;-0.34;93.56;102086.03;5033281;28;20026;-74
2022/03/05 02:16:25;;;;;;;26.15;11.65;;;;;;;-0.36;93.33;102093.81;5039791;27;20032;-75
2022/03/05 02:18:52;;;;;;;26.45;11.07;;;;;;;-0.37;93.21;102085.94;5033275;28;20033;-74
2022/03/05 02:21:18;;;;;;;27.40;11.50;;;;;;;-0.38;92.83;102087.69;5033222;28;20022;-75
2022/03/05 02:23:44;;;;;;;30.08;12.07;;;;;;;-0.47;93.38;102084.88;5033151;28;20048;-74
2022/03/05 02:26:09;;;;;;;31.35;12.63;;;;;;;-0.52;93.58;102078.72;5040106;27;20377;-74
2022/03/05 02:28:36;;;;;;;27.95;11.95;;;;;;;-0.55;94.03;102082.13;5119169;27;20118;-74
2022/03/05 02:31:02;;;;;;;26.92;11.90;;;;;;;-0.58;94.70;102082.03;5130029;27;20157;-74
2022/03/05 02:33:27;;;;;;;29.45;12.18;;;;;;;-0.57;94.61;102083.81;5023195;28;20033;-74
2022/03/05 02:35:53;;;;;;;28.65;11.73;;;;;;;-0.60;94.94;102073.34;5017526;27;20030;-75
2022/03/05 02:38:21;;;;;;;27.42;12.02;;;;;;;-0.66;94.74;102074.06;5036592;27;20029;-75
2022/03/05 02:40:48;;;;;;;32.38;12.25;;;;;;;-0.63;95.24;102082.81;5032762;28;20076;-74
2022/03/05 02:43:14;;;;;;;30.92;11.30;;;;;;;-0.59;95.62;102088.13;5032674;28;20471;-75
2022/03/05 02:45:40;;;;;;;30.70;12.65;;;;;;;-0.62;94.96;102085.44;5032959;28;20435;-75
2022/03/05 02:48:08;;;;;;;29.35;12.07;;;;;;;-0.63;94.39;102081.06;5026757;27;20030;-74
2022/03/05 02:50:34;;;;;;;27.45;12.10;;;;;;;-0.63;94.21;102081.06;5020538;28;20076;-75
2022/03/05 02:52:59;;;;;;;28.98;11.40;;;;;;;-0.63;94.89;102083.66;5032795;28;20045;-74
2022/03/05 02:55:25;;;;;;;28.85;11.45;;;;;;;-0.67;94.25;102084.47;5020682;28;20061;-75
2022/03/05 02:57:51;;;;;;;27.05;11.40;;;;;;;-0.74;94.05;102079.94;5030840;27;20392;-74
2022/03/05 03:00:17;;;;;;;30.40;13.35;;;;;;;-0.70;95.51;102076.59;5021125;28;20517;-75
2022/03/05 03:02:46;;;;;;;30.95;11.73;;;;;;;-0.71;95.74;102080.03;5012936;28;20527;-75
2022/03/05 03:05:12;;;;;;;31.58;13.15;;;;;;;-0.71;95.79;102072.25;5012934;28;20026;-75
2022/03/05 03:07:38;;;;;;;26.63;11.73;;;;;;;-0.75;95.44;102079.09;5029180;27;20086;-75
2022/03/05 03:10:05;;;;;;;29.52;12.27;;;;;;;-0.76;95.42;102076.47;5032119;28;20038;-75
2022/03/05 03:12:31;;;;;;;27.88;11.73;;;;;;;-0.77;96.10;102074.69;5033220;28;20449;-75
2022/03/05 03:14:57;;;;;;;28.20;12.48;;;;;;;-0.81;96.11;102068.53;5032247;28;20033;-74
2022/03/05 03:17:22;;;;;;;31.13;11.65;;;;;;;-0.78;96.43;102071.22;5039355;27;20070;-75
2022/03/05 03:19:47;;;;;;;33.17;13.50;;;;;;;-0.79;96.04;102063.38;5032066;28;20055;-74
2022/03/05 03:22:13;;;;;;;29.70;12.13;;;;;;;-0.82;95.70;102066.78;5032293;28;20029;-74
2022/03/05 03:24:38;;;;;;;27.30;11.77;;;;;;;-0.87;95.60;102074.50;5031704;28;20441;-74
2022/03/05 03:27:03;;;;;;;32.35;12.77;;;;;;;-0.92;95.65;102070.03;5032268;28;20033;-75
2022/03/05 03:29:29;;;;;;;30.73;11.93;;;;;;;-0.94;95.71;102070.00;5038637;27;20037;-75
2022/03/05 03:31:54;;;;;;;29.15;11.77;;;;;;;-0.90;95.09;102057.94;5030902;28;20030;-73
2022/03/05 03:34:19;;;;;;;27.92;12.07;;;;;;;-0.90;95.31;102058.81;5032135;28;20085;-75
2022/03/05 03:36:45;;;;;;;31.23;11.50;;;;;;;-0.90;95.99;102068.34;5032166;28;20022;-74
2022/03/05 03:39:10;;;;;;;28.98;12.35;;;;;;;-0.99;95.97;102064.69;5039169;27;20053;-75
2022/03/05 03:41:36;;;;;;;33.22;12.25;;;;;;;-1.04;96.45;102062.84;5031375;28;20114;-75
2022/03/05 03:44:01;;;;;;;31.58;12.48;;;;;;;-1.06;97.34;102062.81;5032019;28;20033;-74
2022/03/05 03:46:27;;;;;;;34.58;13.50;;;;;;;-1.02;97.06;102068.97;5024638;28;20036;-74
2022/03/05 03:48:52;;;;;;;30.17;11.60;;;;;;;-1.03;96.73;102062.88;5014739;27;20488;-74
2022/03/05 03:51:17;;;;;;;30.25;13.07;;;;;;;-1.01;96.67;102063.78;5037359;27;20862;-74
2022/03/05 03:53:43;;;;;;;26.63;11.40;;;;;;;-1.03;96.15;102051.59;5031385;28;20022;-74
2022/03/05 03:56:08;;;;;;;29.38;11.77;;;;;;;-1.08;95.76;102048.88;5030729;28;20029;-74
2022/03/05 03:58:33;;;;;;;32.67;12.38;;;;;;;-1.10;95.88;102062.69;5010889;28;20018;-74
2022/03/05 04:00:59;;;;;;;30.35;13.20;;;;;;;-1.16;95.69;102053.91;5033938;27;20029;-74
2022/03/05 04:03:24;;;;;;;30.92;12.40;;;;;;;-1.20;95.96;102059.03;5031376;28;20522;-74
2022/03/05 04:05:49;;;;;;;31.45;12.02;;;;;;;-1.29;96.46;102053.56;5031659;28;20022;-75
2022/03/05 04:10:59;;;;;;;33.10;13.35;;;;;;;-1.40;97.30;102054.19;5038776;27;20044;-74
2022/03/05 04:13:24;;;;;;;37.38;13.75;;;;;;;-1.42;98.13;102049.81;5031376;28;20030;-74
2022/03/05 04:15:49;;;;;;;31.92;12.52;;;;;;;-1.44;98.13;102054.13;5031434;28;20026;-74
2022/03/05 04:18:15;;;;;;;32.15;12.18;;;;;;;-1.45;98.17;102041.97;5031579;28;20033;-75
2022/03/05 04:20:40;;;;;;;33.55;12.73;;;;;;;-1.43;98.26;102046.34;5038316;27;20025;-74
2022/03/05 04:23:05;;;;;;;31.60;12.32;;;;;;;-1.41;98.80;102054.16;5031256;28;20061;-74
2022/03/05 04:25:31;;;;;;;31.95;13.27;;;;;;;-1.44;98.74;102051.50;5030813;28;20036;-74
2022/03/05 04:27:56;;;;;;;34.90;13.23;;;;;;;-1.46;98.85;102054.03;5031569;28;20036;-74
2022/03/05 04:30:21;;;;;;;36.63;13.93;;;;;;;-1.43;99.28;102053.25;5031454;28;20468;-75
2022/03/05 04:32:47;;;;;;;32.97;13.50;;;;;;;-1.42;99.32;102053.31;5033510;27;20489;-74
2022/03/05 04:35:12;;;;;;;35.10;13.00;;;;;;;-1.45;99.27;102060.16;5021795;28;20485;-75
2022/03/05 04:37:38;;;;;;;30.20;12.48;;;;;;;-1.44;98.23;102065.38;5031035;28;20040;-74
2022/03/05 04:40:05;;;;;;;35.55;12.35;;;;;;;-1.50;98.02;102068.72;5031075;28;20041;-74
2022/03/05 04:42:30;;;;;;;32.50;12.82;;;;;;;-1.53;98.69;102060.81;5080573;27;20097;-74
2022/03/05 04:44:55;;;;;;;34.90;13.43;;;;;;;-1.52;98.79;102066.91;5117769;27;20524;-74
2022/03/05 04:47:21;;;;;;;31.65;12.38;;;;;;;-1.51;98.71;102072.13;5030787;28;20484;-75
2022/03/05 04:49:47;;;;;;;32.47;12.73;;;;;;;-1.54;98.25;102066.84;5030839;28;20037;-75
2022/03/05 04:52:12;;;;;;;33.30;12.43;;;;;;;-1.59;98.86;102058.06;5052898;27;20023;-74
2022/03/05 04:54:37;;;;;;;30.10;12.18;;;;;;;-1.61;98.64;102067.56;5135072;27;20034;-75
2022/03/05 04:57:03;;;;;;;36.13;12.73;;;;;;;-1.64;98.79;102067.47;5053149;27;20056;-74
2022/03/05 04:59:29;;;;;;;33.20;13.10;;;;;;;-1.65;98.36;102068.28;5030902;28;20025;-74
2022/03/05 05:01:56;;;;;;;28.27;12.65;;;;;;;-1.66;98.33;102069.16;5030860;28;20024;-74
2022/03/05 05:04:22;;;;;;;30.35;12.20;;;;;;;-1.69;98.13;102072.56;5127618;27;20054;-74
2022/03/05 05:06:47;;;;;;;31.65;12.93;;;;;;;-1.75;98.98;102077.59;5091405;27;20060;-75
2022/03/05 05:09:13;;;;;;;31.33;12.23;;;;;;;-1.79;98.86;102080.94;5030592;28;20057;-75
2022/03/05 05:11:39;;;;;;;29.27;12.00;;;;;;;-1.79;98.60;102080.94;5030897;28;20085;-74
2022/03/05 05:14:04;;;;;;;29.85;12.07;;;;;;;-1.80;98.92;102081.78;5101827;27;20023;-74
2022/03/05 05:16:29;;;;;;;32.47;12.60;;;;;;;-1.82;98.51;102078.25;5131512;27;20096;-74
2022/03/05 05:21:39;;;;;;;29.92;12.02;;;;;;;-1.90;98.40;102080.66;5030779;28;20101;-75
2022/03/05 05:24:04;;;;;;;30.17;12.43;;;;;;;-1.94;98.68;102077.91;5086856;27;20031;-75
2022/03/05 05:26:30;;;;;;;31.23;12.45;;;;;;;-1.95;99.21;102071.88;5134241;27;20023;-75
2022/03/05 05:28:55;;;;;;;32.75;12.70;;;;;;;-1.91;99.37;102075.44;5053992;27;20040;-74
2022/03/05 05:31:20;;;;;;;29.88;11.95;;;;;;;-1.88;99.05;102080.69;5030272;28;20384;-75
2022/03/05 05:33:46;;;;;;;27.98;10.77;;;;;;;-1.88;98.52;102079.00;5045047;27;20025;-75
2022/03/05 05:36:14;;;;;;;29.98;12.20;;;;;;;-1.93;98.52;102078.00;5134275;27;20518;-75
2022/03/05 05:38:39;;;;;;;35.90;12.60;;;;;;;-2.01;99.14;102082.97;5092823;27;20035;-75
2022/03/05 05:41:05;;;;;;;30.48;12.02;;;;;;;-2.03;99.12;102086.38;5030089;28;20404;-75
2022/03/05 05:43:30;;;;;;;29.80;11.23;;;;;;;-2.08;99.55;102093.16;5030139;28;20087;-75
2022/03/05 05:45:56;;;;;;;32.25;12.25;;;;;;;-2.08;100.00;102088.81;5109352;27;20023;-75
2022/03/05 05:48:21;;;;;;;37.83;13.20;;;;;;;-2.02;99.77;102090.69;5132788;27;20509;-75
2022/03/05 05:50:48;;;;;;;32.40;12.77;;;;;;;-2.06;99.62;102091.47;5030021;28;20044;-77
2022/03/05 05:53:13;;;;;;;33.13;13.07;;;;;;;-2.07;99.68;102097.47;5032125;28;20022;-76
2022/03/05 05:55:38;;;;;;;32.13;12.07;;;;;;;-2.07;99.88;102097.47;5083701;28;20019;-74
2022/03/05 05:58:04;;;;;;;33.33;13.02;;;;;;;-2.09;99.81;102094.84;5134978;27;20032;-74
2022/03/05 06:00:29;;;;;;;31.10;12.35;;;;;;;-2.09;99.80;102100.03;5068197;28;20033;-75
2022/03/05 06:02:55;;;;;;;32.80;12.70;;;;;;;-2.09;100.00;102100.03;5031621;28;20051;-76
2022/03/05 06:05:20;;;;;;;31.10;12.35;;;;;;;-2.07;99.98;102094.88;5038993;28;20029;-76
2022/03/05 06:07:45;;;;;;;31.02;12.43;;;;;;;-2.07;99.83;102103.56;5015767;28;20030;-75
2022/03/05 06:10:11;;;;;;;40.67;13.35;;;;;;;-2.09;99.55;102101.78;5013104;28;20037;-76
2022/03/05 06:12:37;;;;;;;32.72;12.75;;;;;;;-2.06;99.77;102094.94;5032158;28;20459;-74
2022/03/05 06:15:04;;;;;;;29.52;11.75;;;;;;;-2.00;100.00;102084.72;5034240;28;20118;-76
2022/03/05 06:17:31;;;;;;;31.05;12.77;;;;;;;-1.88;100.00;102101.47;5136483;27;20037;-77
2022/03/05 06:19:56;;;;;;;31.35;11.77;;;;;;;-1.85;100.00;102101.56;5136109;27;20049;-76
2022/03/05 06:22:23;;;;;;;32.88;13.18;;;;;;;-1.88;100.00;102102.34;5043206;27;20022;-77
2022/03/05 06:24:51;;;;;;;29.45;11.25;;;;;;;-1.84;99.97;102101.59;5032046;28;20030;-75
2022/03/05 06:27:16;;;;;;;30.60;12.02;;;;;;;-1.81;99.37;102098.19;5038049;28;20021;-78
2022/03/05 06:29:42;;;;;;;31.25;13.25;;;;;;;-1.82;99.57;102101.63;5031322;28;20026;-76
2022/03/05 06:32:08;;;;;;;33.17;12.65;;;;;;;-1.88;99.12;102107.56;5031468;28;20033;-77
2022/03/05 06:34:34;;;;;;;34.97;13.98;;;;;;;-1.95;99.57;102104.75;5031418;28;20054;-76
2022/03/05 06:37:03;;;;;;;37.78;14.07;;;;;;;-2.01;99.29;102111.53;5034048;28;20018;-76
2022/03/05 06:39:29;;;;;;;32.92;12.40;;;;;;;-2.01;99.51;102111.53;5031650;28;20530;-76
2022/03/05 06:41:54;;;;;;;32.83;13.43;;;;;;;-1.94;99.67;102112.56;5032922;28;20045;-74
2022/03/05 06:44:20;;;;;;;32.22;13.13;;;;;;;-1.89;99.58;102110.06;5030008;28;20529;-77
2022/03/05 06:46:45;;;;;;;34.28;12.13;;;;;;;-1.83;99.63;102110.25;5031257;28;20362;-77
2022/03/05 06:49:10;;;;;;;35.03;14.20;;;;;;;-1.85;99.51;102120.59;5034833;28;20117;-77
2022/03/05 06:51:36;;;;;;;29.67;12.65;;;;;;;-1.79;99.08;102114.72;5029085;28;20033;-77
2022/03/05 06:54:01;;;;;;;36.00;13.80;;;;;;;-1.82;99.16;102112.91;5027298;28;20094;-77
2022/03/05 06:56:26;;;;;;;34.20;12.48;;;;;;;-1.81;98.42;102117.25;5029271;28;20109;-77
2022/03/05 06:58:52;;;;;;;35.70;13.43;;;;;;;-1.78;98.95;102125.97;5037998;28;20155;-77
2022/03/05 07:01:17;;;;;;;35.08;12.27;;;;;;;-1.73;98.56;102126.97;5033935;28;20029;-77
2022/03/05 07:03:42;;;;;;;35.75;13.43;;;;;;;-1.74;99.02;102125.19;5032434;28;20021;-77
2022/03/05 07:06:08;;;;;;;38.03;13.05;;;;;;;-1.71;99.18;102127.91;5032417;28;20026;-77
2022/03/05 07:08:33;;;;;;;35.53;13.77;;;;;;;-1.71;99.06;102136.56;5039278;27;20503;-77
2022/03/05 07:10:59;;;;;;;36.22;13.95;;;;;;;-1.72;98.98;102129.59;5032380;28;20022;-77
2022/03/05 07:13:24;;;;;;;32.22;13.05;;;;;;;-1.70;98.64;102142.63;5032444;28;20026;-76
2022/03/05 07:15:49;;;;;;;40.50;13.30;;;;;;;-1.63;98.86;102134.16;5031962;28;20487;-75
2022/03/05 07:18:15;;;;;;;35.67;13.10;;;;;;;-1.54;98.49;102141.31;5048429;27;20062;-76
2022/03/05 07:20:40;;;;;;;34.58;13.15;;;;;;;-1.54;97.90;102146.50;5137039;27;20019;-76
2022/03/05 07:23:06;;;;;;;32.85;12.52;;;;;;;-1.48;98.18;102144.94;5136507;27;20027;-75
2022/03/05 07:25:36;;;;;;;34.85;12.98;;;;;;;-1.44;97.74;102152.84;5072694;27;20112;-76
2022/03/05 07:28:06;;;;;;;31.48;13.18;;;;;;;-1.41;97.51;102153.78;5032287;28;20025;-76
2022/03/05 07:30:31;;;;;;;36.33;14.35;;;;;;;-1.40;97.57;102155.53;5128606;27;20073;-76
2022/03/05 07:32:57;;;;;;;38.13;13.90;;;;;;;-1.34;97.53;102160.91;5081809;27;20099;-75
2022/03/05 07:35:22;;;;;;;34.08;14.15;;;;;;;-1.33;97.64;102162.66;5100394;27;20031;-74
2022/03/05 07:37:48;;;;;;;33.88;14.38;;;;;;;-1.23;97.30;102165.50;5134990;27;20379;-74
2022/03/05 07:40:13;;;;;;;33.83;13.90;;;;;;;-1.22;97.22;102154.25;5037775;27;20041;-74
2022/03/05 07:42:39;;;;;;;38.53;14.48;;;;;;;-1.16;97.41;102157.03;5114628;27;20031;-74
2022/03/05 07:45:05;;;;;;;36.72;13.77;;;;;;;-1.09;97.50;102152.84;5072296;27;20489;-74
2022/03/05 07:47:30;;;;;;;36.60;14.43;;;;;;;-0.99;96.89;102157.41;5126958;27;20447;-74
2022/03/05 07:49:55;;;;;;;33.40;14.18;;;;;;;-0.87;96.60;102156.81;5052256;27;20036;-75
2022/03/05 07:52:21;;;;;;;42.65;14.95;;;;;;;-0.81;95.91;102161.31;5025458;28;20032;-75
2022/03/05 07:54:46;;;;;;;35.45;14.00;;;;;;;-0.70;95.97;102160.72;5010612;28;20018;-74
2022/03/05 07:57:12;;;;;;;40.25;14.35;;;;;;;-0.69;95.86;102158.97;5021600;28;20392;-75
2022/03/05 07:59:37;;;;;;;41.97;15.68;;;;;;;-0.67;95.34;102165.97;5019636;28;20096;-74
2022/03/05 08:02:03;;;;;;;35.28;14.85;;;;;;;-0.64;95.63;102167.75;5063207;27;20206;-75
2022/03/05 08:04:28;;;;;;;36.13;14.25;;;;;;;-0.54;95.17;102174.97;5031323;28;20030;-75
2022/03/05 08:06:53;;;;;;;34.63;14.43;;;;;;;-0.42;94.26;102176.94;5031505;28;20025;-75
2022/03/05 08:09:19;;;;;;;33.97;14.02;;;;;;;-0.31;93.18;102173.72;5030296;28;20034;-75
2022/03/05 08:11:44;;;;;;;36.40;14.75;;;;;;;-0.29;93.38;102172.03;5044882;27;20077;-74
2022/03/05 08:14:09;;;;;;;37.05;14.82;;;;;;;-0.22;93.75;102173.91;5058207;27;20019;-74
2022/03/05 08:16:35;;;;;;;44.58;15.43;;;;;;;-0.09;93.51;102175.03;5035480;27;20086;-74
2022/03/05 08:19:00;;;;;;;36.95;15.45;;;;;;;0.00;92.85;102180.44;5029540;28;20026;-75
2022/03/05 08:21:27;;;;;;;35.95;16.00;;;;;;;0.06;92.92;102177.94;5037656;27;20013;-76
2022/03/05 08:23:53;;;;;;;39.17;15.30;;;;;;;0.13;92.94;102184.19;5030594;28;20030;-76
2022/03/05 08:26:18;;;;;;;38.28;15.02;;;;;;;0.22;92.79;102186.97;5024851;28;20421;-76
2022/03/05 08:28:45;;;;;;;39.58;15.80;;;;;;;0.31;92.17;102175.84;5028014;28;20025;-74
2022/03/05 08:31:12;;;;;;;38.05;15.90;;;;;;;0.35;92.05;102182.00;5035737;27;20040;-75
2022/03/05 08:33:38;;;;;;;36.83;15.23;;;;;;;0.52;92.43;102184.91;5031725;27;20025;-75
2022/03/05 08:36:05;;;;;;;35.25;14.98;;;;;;;0.62;91.84;102174.66;5030850;28;20073;-75
2022/03/05 08:38:31;;;;;;;42.10;15.40;;;;;;;0.75;90.78;102180.97;5030520;28;20082;-75
2022/03/05 08:40:58;;;;;;;40.55;15.30;;;;;;;0.89;89.96;102180.34;5036812;27;20049;-76
2022/03/05 08:43:23;;;;;;;40.08;15.55;;;;;;;1.05;89.92;102178.84;5042797;27;20376;-75
2022/03/05 08:45:49;;;;;;;36.13;15.48;;;;;;;1.17;89.32;102176.44;5030811;27;20022;-74
2022/03/05 08:48:14;;;;;;;40.13;15.70;;;;;;;1.23;88.54;102189.59;5098274;27;20102;-74
2022/03/05 08:50:39;;;;;;;38.47;16.08;;;;;;;1.27;88.50;102183.56;5076931;27;20032;-74
2022/03/05 08:53:05;;;;;;;39.33;16.65;;;;;;;1.31;88.21;102187.09;5030712;28;20029;-75
2022/03/05 08:55:30;;;;;;;37.47;15.65;;;;;;;1.39;88.25;102180.25;5030564;28;20082;-76
2022/03/05 08:57:55;;;;;;;35.40;16.30;;;;;;;1.48;88.56;102176.91;5030372;28;20112;-75
2022/03/05 09:00:21;;;;;;;38.67;15.90;;;;;;;1.69;88.32;102178.97;5030835;28;20082;-75
2022/03/05 09:02:46;;;;;;;38.50;16.08;;;;;;;2.12;86.42;102165.53;5029643;27;20112;-75
2022/03/05 09:05:14;;;;;;;38.72;16.55;;;;;;;3.06;85.07;102176.94;5025252;28;20928;-75
2022/03/05 09:07:40;;;;;;;40.17;17.27;;;;;;;4.42;78.52;102175.00;5027181;28;20078;-75
2022/03/05 09:10:06;;;;;;;34.67;16.00;;;;;;;6.10;74.34;102172.19;5039149;27;20031;-75
2022/03/05 09:12:32;;;;;;;32.80;15.60;;;;;;;7.59;64.27;102166.66;5030442;28;20017;-76
2022/03/05 09:14:57;;;;;;;32.28;15.15;;;;;;;8.52;60.08;102175.16;5030200;28;20035;-76
2022/03/05 09:17:23;;;;;;;35.00;16.92;;;;;;;8.79;57.51;102177.41;5081465;27;20040;-74
2022/03/05 09:19:48;;;;;;;34.03;16.85;;;;;;;9.55;54.31;102170.81;5029824;28;20033;-75
2022/03/05 09:22:14;;;;;;;35.65;17.42;;;;;;;10.36;50.78;102176.22;5029388;28;20053;-77
2022/03/05 09:24:39;;;;;;;34.05;17.67;;;;;;;10.69;47.89;102178.13;5033631;27;20041;-74
2022/03/05 09:27:05;;;;;;;33.53;17.67;;;;;;;10.39;47.86;102176.16;5029726;28;20021;-77
2022/03/05 09:29:30;;;;;;;32.40;17.15;;;;;;;10.53;48.09;102182.91;5126310;27;20023;-74
2022/03/05 09:31:56;;;;;;;36.42;19.30;;;;;;;10.60;45.30;102181.84;5058663;27;20100;-76
2022/03/05 09:34:21;;;;;;;31.08;17.35;;;;;;;11.32;45.58;102187.16;5030000;28;20643;-76
2022/03/05 09:36:46;;;;;;;36.47;18.60;;;;;;;11.26;45.22;102184.66;5040854;28;20484;-77
2022/03/05 09:39:13;;;;;;;35.33;17.58;;;;;;;11.26;45.52;102179.34;5030034;28;20041;-76
2022/03/05 09:41:40;;;;;;;36.17;19.05;;;;;;;10.97;45.64;102180.97;5029685;28;20067;-75
2022/03/05 09:44:06;;;;;;;33.22;17.73;;;;;;;11.74;43.83;102186.00;5030319;28;20046;-75
2022/03/05 09:46:32;;;;;;;37.83;20.13;;;;;;;11.45;44.13;102177.09;5028783;28;20032;-74
2022/03/05 09:48:58;;;;;;;32.72;18.02;;;;;;;12.05;42.39;102182.53;5029092;28;20033;-73
2022/03/05 09:51:24;;;;;;;33.17;18.15;;;;;;;12.07;42.63;102175.38;5025993;28;20061;-73
2022/03/05 09:53:54;;;;;;;56.40;28.15;;;;;;;12.20;40.92;102176.75;5025708;28;20391;-73
2022/03/05 09:56:20;;;;;;;69.15;32.15;;;;;;;11.18;44.50;102174.25;5028916;28;20029;-75
2022/03/05 09:58:47;;;;;;;37.15;19.40;;;;;;;11.25;43.17;102173.19;5029922;28;20026;-75
2022/03/05 10:01:12;;;;;;;37.25;20.92;;;;;;;11.59;44.42;102168.75;5029509;28;20035;-76
2022/03/05 10:03:52;;;;;;;37.42;17.85;;;;;;;12.68;40.20;102169.94;5028347;28;20025;-74
2022/03/05 10:06:22;;;;;;;34.60;18.88;;;;;;;12.66;39.45;102161.16;5028469;28;20030;-76
2022/03/05 10:08:51;;;;;;;31.60;17.88;;;;;;;12.67;39.45;102170.84;5013442;28;20049;-74
2022/03/05 10:11:17;;;;;;;32.15;18.27;;;;;;;12.29;40.25;102165.84;5028652;28;20358;-74
2022/03/05 10:13:43;;;;;;;32.40;17.30;;;;;;;13.03;38.71;102167.03;5025346;28;20046;-73
2022/03/05 10:16:28;;;;;;;31.30;17.17;;;;;;;13.41;38.20;102170.19;5028741;28;20444;-76
2022/03/05 10:18:55;;;;;;;33.92;18.17;;;;;;;13.18;39.06;102169.16;5024510;28;20022;-74
2022/03/05 10:21:32;;;;;;;33.67;18.98;;;;;;;13.36;39.02;102172.09;5028898;28;20061;-75
2022/03/05 10:24:06;;;;;;;33.38;18.15;;;;;;;14.25;36.80;102171.50;5010099;28;20026;-76
2022/03/05 10:26:50;;;;;;;34.55;18.95;;;;;;;14.05;38.46;102172.28;5041256;28;20041;-75
2022/03/05 10:29:24;;;;;;;36.53;19.23;;;;;;;14.07;37.67;102170.41;5028811;28;20032;-75
2022/03/05 10:31:56;;;;;;;31.75;18.52;;;;;;;13.57;37.36;102160.72;5029465;28;20040;-74
2022/03/05 10:34:21;;;;;;;33.25;18.83;;;;;;;14.51;36.86;102166.94;5032889;28;20032;-75
2022/03/05 10:36:59;;;;;;;34.42;19.13;;;;;;;14.04;36.74;102169.66;5032225;28;20052;-76
2022/03/05 10:39:26;;;;;;;33.65;18.65;;;;;;;14.06;37.69;102166.00;5021810;28;20061;-76
2022/03/05 10:41:54;;;;;;;32.72;18.85;;;;;;;13.72;39.43;102171.72;5012519;28;20048;-75
2022/03/05 10:44:20;;;;;;;35.72;19.85;;;;;;;13.92;38.67;102163.00;5021730;28;20117;-76
2022/03/05 10:46:56;;;;;;;32.85;19.48;;;;;;;15.16;35.25;102168.75;5018708;28;20574;-76
2022/03/05 10:49:28;;;;;;;37.00;20.00;;;;;;;14.43;36.08;102179.69;5032617;28;20480;-74
2022/03/05 10:51:59;;;;;;;31.23;18.58;;;;;;;14.58;37.20;102173.75;5032566;28;20032;-77
2022/03/05 10:54:40;;;;;;;33.83;19.08;;;;;;;14.78;35.09;102165.91;5032514;28;20068;-76
2022/03/05 10:57:15;;;;;;;32.13;18.38;;;;;;;15.16;36.54;102171.44;5023578;28;20032;-75
2022/03/05 10:59:47;;;;;;;36.50;20.70;;;;;;;15.22;35.90;102171.16;5031799;28;20026;-76
2022/03/05 11:02:13;;;;;;;;;;;;;;;15.76;34.13;102173.28;5015423;28;20083;-75
2022/03/05 11:04:42;;;;;;;34.35;19.23;;;;;;;15.46;33.70;102163.00;5012648;28;19922;-76
2022/03/05 11:07:08;;;;;;;33.30;18.40;;;;;;;15.80;33.64;102158.84;5012805;28;20030;-73
2022/03/05 11:09:38;;;;;;;34.70;18.88;;;;;;;15.26;35.19;102170.09;5030152;28;20033;-75
2022/03/05 11:12:07;;;;;;;31.00;19.02;;;;;;;14.90;35.24;102157.41;5031073;28;20476;-73